sensor_id;sensor_type;location;lat;lon;timestamp;P1;durP1;ratioP1;P2;durP2;ratioP2
46116;SDS011;32591;48.102;11.772;2023-07-13T00:02:14;4.45;;;2.13;;
46116;SDS011;32591;48.102;11.772;2023-07-13T00:04:43;7.75;;;3.20;;
46116;SDS011;32591;48.102;11.772;2023-07-13T00:07:10;3.47;;;2.30;;
46116;SDS011;32591;48.102;11.772;2023-07-13T00:09:39;3.63;;;2.20;;
46116;SDS011;32591;48.102;11.772;2023-07-13T00:12:21;4.60;;;2.88;;
46116;SDS011;32591;48.102;11.772;2023-07-13T00:14:50;3.75;;;2.17;;
46116;SDS011;32591;48.102;11.772;2023-07-13T00:17:17;5.03;;;2.10;;
46116;SDS011;32591;48.102;11.772;2023-07-13T00:19:46;4.45;;;2.58;;
46116;SDS011;32591;48.102;11.772;2023-07-13T00:22:13;5.30;;;2.40;;
46116;SDS011;32591;48.102;11.772;2023-07-13T00:24:40;2.75;;;2.00;;
46116;SDS011;32591;48.102;11.772;2023-07-13T00:27:07;5.63;;;2.67;;
46116;SDS011;32591;48.102;11.772;2023-07-13T00:29:35;3.03;;;2.42;;
46116;SDS011;32591;48.102;11.772;2023-07-13T00:32:02;3.58;;;2.47;;
46116;SDS011;32591;48.102;11.772;2023-07-13T00:34:31;4.35;;;2.60;;
46116;SDS011;32591;48.102;11.772;2023-07-13T00:36:59;3.00;;;2.05;;
46116;SDS011;32591;48.102;11.772;2023-07-13T00:39:26;4.90;;;2.28;;
46116;SDS011;32591;48.102;11.772;2023-07-13T00:41:54;3.45;;;2.40;;
46116;SDS011;32591;48.102;11.772;2023-07-13T00:44:21;6.40;;;2.20;;
46116;SDS011;32591;48.102;11.772;2023-07-13T00:46:48;3.75;;;2.83;;
46116;SDS011;32591;48.102;11.772;2023-07-13T00:49:17;2.35;;;1.98;;
46116;SDS011;32591;48.102;11.772;2023-07-13T00:51:47;6.05;;;2.47;;
46116;SDS011;32591;48.102;11.772;2023-07-13T00:54:23;4.07;;;2.10;;
46116;SDS011;32591;48.102;11.772;2023-07-13T00:56:55;4.20;;;2.30;;
46116;SDS011;32591;48.102;11.772;2023-07-13T00:59:24;3.55;;;2.30;;
46116;SDS011;32591;48.102;11.772;2023-07-13T01:01:52;3.40;;;2.45;;
46116;SDS011;32591;48.102;11.772;2023-07-13T01:04:20;3.58;;;2.10;;
46116;SDS011;32591;48.102;11.772;2023-07-13T01:06:50;4.78;;;2.38;;
46116;SDS011;32591;48.102;11.772;2023-07-13T01:09:17;5.22;;;2.30;;
46116;SDS011;32591;48.102;11.772;2023-07-13T01:11:46;4.22;;;2.42;;
46116;SDS011;32591;48.102;11.772;2023-07-13T01:14:13;3.17;;;2.08;;
46116;SDS011;32591;48.102;11.772;2023-07-13T01:16:42;4.82;;;2.35;;
46116;SDS011;32591;48.102;11.772;2023-07-13T01:19:13;3.92;;;2.22;;
46116;SDS011;32591;48.102;11.772;2023-07-13T01:22:02;4.75;;;2.40;;
46116;SDS011;32591;48.102;11.772;2023-07-13T01:24:33;3.47;;;1.77;;
46116;SDS011;32591;48.102;11.772;2023-07-13T01:27:01;5.30;;;2.28;;
46116;SDS011;32591;48.102;11.772;2023-07-13T01:29:29;3.17;;;1.90;;
46116;SDS011;32591;48.102;11.772;2023-07-13T01:31:57;3.53;;;1.90;;
46116;SDS011;32591;48.102;11.772;2023-07-13T01:34:25;3.72;;;2.90;;
46116;SDS011;32591;48.102;11.772;2023-07-13T01:36:52;3.63;;;2.10;;
46116;SDS011;32591;48.102;11.772;2023-07-13T01:39:21;5.78;;;2.60;;
46116;SDS011;32591;48.102;11.772;2023-07-13T01:41:49;3.55;;;2.05;;
46116;SDS011;32591;48.102;11.772;2023-07-13T01:44:16;3.28;;;2.30;;
46116;SDS011;32591;48.102;11.772;2023-07-13T01:46:43;4.97;;;2.55;;
46116;SDS011;32591;48.102;11.772;2023-07-13T01:49:11;7.15;;;2.20;;
46116;SDS011;32591;48.102;11.772;2023-07-13T01:51:38;4.10;;;2.42;;
46116;SDS011;32591;48.102;11.772;2023-07-13T01:54:05;4.32;;;1.98;;
46116;SDS011;32591;48.102;11.772;2023-07-13T01:56:33;3.38;;;2.10;;
46116;SDS011;32591;48.102;11.772;2023-07-13T01:59:00;6.10;;;3.00;;
46116;SDS011;32591;48.102;11.772;2023-07-13T02:01:27;3.35;;;2.20;;
46116;SDS011;32591;48.102;11.772;2023-07-13T02:03:54;3.67;;;1.90;;
46116;SDS011;32591;48.102;11.772;2023-07-13T02:06:21;3.45;;;2.10;;
46116;SDS011;32591;48.102;11.772;2023-07-13T02:08:48;3.95;;;2.10;;
46116;SDS011;32591;48.102;11.772;2023-07-13T02:11:15;5.32;;;2.38;;
46116;SDS011;32591;48.102;11.772;2023-07-13T02:13:43;3.80;;;2.25;;
46116;SDS011;32591;48.102;11.772;2023-07-13T02:16:10;4.28;;;2.50;;
46116;SDS011;32591;48.102;11.772;2023-07-13T02:18:37;5.13;;;2.35;;
46116;SDS011;32591;48.102;11.772;2023-07-13T02:21:04;3.42;;;1.95;;
46116;SDS011;32591;48.102;11.772;2023-07-13T02:23:31;4.20;;;2.42;;
46116;SDS011;32591;48.102;11.772;2023-07-13T02:25:59;4.70;;;2.25;;
46116;SDS011;32591;48.102;11.772;2023-07-13T02:28:29;2.60;;;2.08;;
46116;SDS011;32591;48.102;11.772;2023-07-13T02:31:05;4.15;;;2.13;;
46116;SDS011;32591;48.102;11.772;2023-07-13T02:33:33;5.80;;;2.75;;
46116;SDS011;32591;48.102;11.772;2023-07-13T02:36:00;5.40;;;2.42;;
46116;SDS011;32591;48.102;11.772;2023-07-13T02:38:30;5.50;;;2.38;;
46116;SDS011;32591;48.102;11.772;2023-07-13T02:40:58;3.15;;;2.08;;
46116;SDS011;32591;48.102;11.772;2023-07-13T02:43:26;3.13;;;2.25;;
46116;SDS011;32591;48.102;11.772;2023-07-13T02:45:53;5.40;;;2.38;;
46116;SDS011;32591;48.102;11.772;2023-07-13T02:48:21;5.00;;;2.42;;
46116;SDS011;32591;48.102;11.772;2023-07-13T02:50:48;3.70;;;3.00;;
46116;SDS011;32591;48.102;11.772;2023-07-13T02:53:15;4.53;;;2.67;;
46116;SDS011;32591;48.102;11.772;2023-07-13T02:55:42;4.25;;;2.15;;
46116;SDS011;32591;48.102;11.772;2023-07-13T02:58:12;5.43;;;2.40;;
46116;SDS011;32591;48.102;11.772;2023-07-13T03:00:41;3.97;;;2.40;;
46116;SDS011;32591;48.102;11.772;2023-07-13T03:03:09;4.47;;;2.28;;
46116;SDS011;32591;48.102;11.772;2023-07-13T03:05:39;8.18;;;3.13;;
46116;SDS011;32591;48.102;11.772;2023-07-13T03:08:08;5.45;;;2.28;;
46116;SDS011;32591;48.102;11.772;2023-07-13T03:10:35;6.72;;;2.63;;
46116;SDS011;32591;48.102;11.772;2023-07-13T03:13:02;4.78;;;2.30;;
46116;SDS011;32591;48.102;11.772;2023-07-13T03:15:29;6.43;;;2.95;;
46116;SDS011;32591;48.102;11.772;2023-07-13T03:17:56;4.63;;;2.20;;
46116;SDS011;32591;48.102;11.772;2023-07-13T03:20:23;6.70;;;2.72;;
46116;SDS011;32591;48.102;11.772;2023-07-13T03:22:52;4.00;;;2.35;;
46116;SDS011;32591;48.102;11.772;2023-07-13T03:25:19;7.53;;;2.72;;
46116;SDS011;32591;48.102;11.772;2023-07-13T03:27:46;5.03;;;2.88;;
46116;SDS011;32591;48.102;11.772;2023-07-13T03:30:13;5.25;;;2.88;;
46116;SDS011;32591;48.102;11.772;2023-07-13T03:32:40;5.53;;;3.08;;
46116;SDS011;32591;48.102;11.772;2023-07-13T03:35:08;4.78;;;2.88;;
46116;SDS011;32591;48.102;11.772;2023-07-13T03:37:35;4.38;;;2.60;;
46116;SDS011;32591;48.102;11.772;2023-07-13T03:40:09;6.07;;;3.00;;
46116;SDS011;32591;48.102;11.772;2023-07-13T03:42:37;6.50;;;2.92;;
46116;SDS011;32591;48.102;11.772;2023-07-13T03:45:04;4.40;;;2.92;;
46116;SDS011;32591;48.102;11.772;2023-07-13T03:47:33;4.45;;;2.92;;
46116;SDS011;32591;48.102;11.772;2023-07-13T03:50:01;7.70;;;3.47;;
46116;SDS011;32591;48.102;11.772;2023-07-13T03:52:28;4.72;;;3.08;;
46116;SDS011;32591;48.102;11.772;2023-07-13T03:54:55;4.50;;;2.97;;
46116;SDS011;32591;48.102;11.772;2023-07-13T03:57:24;6.95;;;3.25;;
46116;SDS011;32591;48.102;11.772;2023-07-13T03:59:51;4.25;;;2.60;;
46116;SDS011;32591;48.102;11.772;2023-07-13T04:02:18;4.20;;;2.92;;
46116;SDS011;32591;48.102;11.772;2023-07-13T04:04:46;5.68;;;2.58;;
46116;SDS011;32591;48.102;11.772;2023-07-13T04:07:13;4.50;;;2.70;;
46116;SDS011;32591;48.102;11.772;2023-07-13T04:09:40;6.25;;;3.40;;
46116;SDS011;32591;48.102;11.772;2023-07-13T04:12:07;5.05;;;3.08;;
46116;SDS011;32591;48.102;11.772;2023-07-13T04:14:37;5.50;;;2.78;;
46116;SDS011;32591;48.102;11.772;2023-07-13T04:17:04;4.55;;;3.33;;
46116;SDS011;32591;48.102;11.772;2023-07-13T04:19:31;4.78;;;2.33;;
46116;SDS011;32591;48.102;11.772;2023-07-13T04:21:58;4.10;;;2.70;;
46116;SDS011;32591;48.102;11.772;2023-07-13T04:24:25;5.10;;;2.90;;
46116;SDS011;32591;48.102;11.772;2023-07-13T04:26:52;4.47;;;2.88;;
46116;SDS011;32591;48.102;11.772;2023-07-13T04:29:19;6.63;;;3.17;;
46116;SDS011;32591;48.102;11.772;2023-07-13T04:31:48;4.22;;;2.72;;
46116;SDS011;32591;48.102;11.772;2023-07-13T04:34:15;5.03;;;2.80;;
46116;SDS011;32591;48.102;11.772;2023-07-13T04:36:42;7.55;;;3.08;;
46116;SDS011;32591;48.102;11.772;2023-07-13T04:39:09;4.93;;;2.60;;
46116;SDS011;32591;48.102;11.772;2023-07-13T04:41:36;5.50;;;2.90;;
46116;SDS011;32591;48.102;11.772;2023-07-13T04:44:03;6.78;;;2.85;;
46116;SDS011;32591;48.102;11.772;2023-07-13T04:46:30;6.32;;;3.60;;
46116;SDS011;32591;48.102;11.772;2023-07-13T04:48:58;4.50;;;2.58;;
46116;SDS011;32591;48.102;11.772;2023-07-13T04:51:26;6.93;;;2.83;;
46116;SDS011;32591;48.102;11.772;2023-07-13T04:53:53;4.70;;;2.78;;
46116;SDS011;32591;48.102;11.772;2023-07-13T04:56:20;4.97;;;3.25;;
46116;SDS011;32591;48.102;11.772;2023-07-13T04:58:47;4.60;;;3.10;;
46116;SDS011;32591;48.102;11.772;2023-07-13T05:01:14;7.45;;;4.55;;
46116;SDS011;32591;48.102;11.772;2023-07-13T05:03:41;5.82;;;2.97;;
46116;SDS011;32591;48.102;11.772;2023-07-13T05:06:09;5.88;;;3.00;;
46116;SDS011;32591;48.102;11.772;2023-07-13T05:08:36;5.75;;;3.03;;
46116;SDS011;32591;48.102;11.772;2023-07-13T05:11:03;5.97;;;3.10;;
46116;SDS011;32591;48.102;11.772;2023-07-13T05:13:32;4.80;;;2.78;;
46116;SDS011;32591;48.102;11.772;2023-07-13T05:16:00;6.30;;;3.00;;
46116;SDS011;32591;48.102;11.772;2023-07-13T05:18:31;7.85;;;4.35;;
46116;SDS011;32591;48.102;11.772;2023-07-13T05:20:58;7.03;;;3.72;;
46116;SDS011;32591;48.102;11.772;2023-07-13T05:23:28;4.85;;;2.58;;
46116;SDS011;32591;48.102;11.772;2023-07-13T05:25:56;5.93;;;2.20;;
46116;SDS011;32591;48.102;11.772;2023-07-13T05:28:24;7.43;;;2.60;;
46116;SDS011;32591;48.102;11.772;2023-07-13T05:30:52;5.45;;;2.92;;
46116;SDS011;32591;48.102;11.772;2023-07-13T05:33:19;3.60;;;2.03;;
46116;SDS011;32591;48.102;11.772;2023-07-13T05:35:46;9.48;;;2.60;;
46116;SDS011;32591;48.102;11.772;2023-07-13T05:38:13;4.82;;;2.85;;
46116;SDS011;32591;48.102;11.772;2023-07-13T05:40:43;4.72;;;2.78;;
46116;SDS011;32591;48.102;11.772;2023-07-13T05:43:11;3.92;;;2.65;;
46116;SDS011;32591;48.102;11.772;2023-07-13T05:45:38;5.35;;;1.83;;
46116;SDS011;32591;48.102;11.772;2023-07-13T05:48:06;5.65;;;2.63;;
46116;SDS011;32591;48.102;11.772;2023-07-13T05:50:33;5.20;;;2.53;;
46116;SDS011;32591;48.102;11.772;2023-07-13T05:53:00;5.93;;;3.28;;
46116;SDS011;32591;48.102;11.772;2023-07-13T05:55:27;4.70;;;2.70;;
46116;SDS011;32591;48.102;11.772;2023-07-13T05:57:55;4.05;;;2.60;;
46116;SDS011;32591;48.102;11.772;2023-07-13T06:00:23;5.70;;;2.35;;
46116;SDS011;32591;48.102;11.772;2023-07-13T06:02:50;3.50;;;2.00;;
46116;SDS011;32591;48.102;11.772;2023-07-13T06:05:17;3.70;;;2.28;;
46116;SDS011;32591;48.102;11.772;2023-07-13T06:07:45;5.15;;;2.55;;
46116;SDS011;32591;48.102;11.772;2023-07-13T06:10:11;5.43;;;2.40;;
46116;SDS011;32591;48.102;11.772;2023-07-13T06:12:39;5.47;;;2.20;;
46116;SDS011;32591;48.102;11.772;2023-07-13T06:15:07;6.97;;;2.88;;
46116;SDS011;32591;48.102;11.772;2023-07-13T06:17:35;3.63;;;2.45;;
46116;SDS011;32591;48.102;11.772;2023-07-13T06:20:02;4.40;;;2.50;;
46116;SDS011;32591;48.102;11.772;2023-07-13T06:22:30;4.38;;;2.15;;
46116;SDS011;32591;48.102;11.772;2023-07-13T06:24:57;5.00;;;2.53;;
46116;SDS011;32591;48.102;11.772;2023-07-13T06:27:24;3.35;;;2.47;;
46116;SDS011;32591;48.102;11.772;2023-07-13T06:29:51;4.57;;;2.47;;
46116;SDS011;32591;48.102;11.772;2023-07-13T06:32:19;4.43;;;2.67;;
46116;SDS011;32591;48.102;11.772;2023-07-13T06:34:46;4.10;;;2.50;;
46116;SDS011;32591;48.102;11.772;2023-07-13T06:37:13;3.25;;;2.10;;
46116;SDS011;32591;48.102;11.772;2023-07-13T06:39:40;3.47;;;2.63;;
46116;SDS011;32591;48.102;11.772;2023-07-13T06:42:08;5.00;;;2.33;;
46116;SDS011;32591;48.102;11.772;2023-07-13T06:44:35;5.70;;;2.70;;
46116;SDS011;32591;48.102;11.772;2023-07-13T06:47:02;5.25;;;2.40;;
46116;SDS011;32591;48.102;11.772;2023-07-13T06:49:31;4.20;;;2.45;;
46116;SDS011;32591;48.102;11.772;2023-07-13T06:51:58;3.72;;;2.47;;
46116;SDS011;32591;48.102;11.772;2023-07-13T06:54:25;4.82;;;2.40;;
46116;SDS011;32591;48.102;11.772;2023-07-13T06:56:52;3.47;;;2.25;;
46116;SDS011;32591;48.102;11.772;2023-07-13T06:59:19;5.68;;;2.53;;
46116;SDS011;32591;48.102;11.772;2023-07-13T07:01:46;4.05;;;2.53;;
46116;SDS011;32591;48.102;11.772;2023-07-13T07:04:12;4.63;;;2.60;;
46116;SDS011;32591;48.102;11.772;2023-07-13T07:06:41;5.22;;;3.30;;
46116;SDS011;32591;48.102;11.772;2023-07-13T07:09:08;3.17;;;2.25;;
46116;SDS011;32591;48.102;11.772;2023-07-13T07:11:35;5.07;;;2.30;;
46116;SDS011;32591;48.102;11.772;2023-07-13T07:14:02;3.80;;;2.38;;
46116;SDS011;32591;48.102;11.772;2023-07-13T07:16:29;5.53;;;2.70;;
46116;SDS011;32591;48.102;11.772;2023-07-13T07:18:56;3.85;;;2.45;;
46116;SDS011;32591;48.102;11.772;2023-07-13T07:21:23;4.63;;;2.03;;
46116;SDS011;32591;48.102;11.772;2023-07-13T07:23:52;5.43;;;2.97;;
46116;SDS011;32591;48.102;11.772;2023-07-13T07:26:19;5.63;;;2.67;;
46116;SDS011;32591;48.102;11.772;2023-07-13T07:28:46;3.47;;;2.67;;
46116;SDS011;32591;48.102;11.772;2023-07-13T07:31:13;3.72;;;2.40;;
46116;SDS011;32591;48.102;11.772;2023-07-13T07:33:40;5.65;;;2.42;;
46116;SDS011;32591;48.102;11.772;2023-07-13T07:36:08;5.20;;;2.20;;
46116;SDS011;32591;48.102;11.772;2023-07-13T07:38:35;6.68;;;2.42;;
46116;SDS011;32591;48.102;11.772;2023-07-13T07:41:04;6.60;;;2.85;;
46116;SDS011;32591;48.102;11.772;2023-07-13T07:43:31;4.97;;;2.92;;
46116;SDS011;32591;48.102;11.772;2023-07-13T07:45:58;6.05;;;2.97;;
46116;SDS011;32591;48.102;11.772;2023-07-13T07:48:25;6.85;;;2.55;;
46116;SDS011;32591;48.102;11.772;2023-07-13T07:50:52;4.45;;;2.58;;
46116;SDS011;32591;48.102;11.772;2023-07-13T07:53:19;6.60;;;3.85;;
46116;SDS011;32591;48.102;11.772;2023-07-13T07:55:46;4.30;;;2.58;;
46116;SDS011;32591;48.102;11.772;2023-07-13T07:58:15;5.80;;;2.40;;
46116;SDS011;32591;48.102;11.772;2023-07-13T08:00:42;5.65;;;2.72;;
46116;SDS011;32591;48.102;11.772;2023-07-13T08:03:09;5.05;;;2.45;;
46116;SDS011;32591;48.102;11.772;2023-07-13T08:05:36;7.40;;;2.67;;
46116;SDS011;32591;48.102;11.772;2023-07-13T08:08:03;4.18;;;2.60;;
46116;SDS011;32591;48.102;11.772;2023-07-13T08:10:30;3.38;;;2.30;;
46116;SDS011;32591;48.102;11.772;2023-07-13T08:12:57;6.65;;;2.35;;
46116;SDS011;32591;48.102;11.772;2023-07-13T08:15:25;7.25;;;2.60;;
46116;SDS011;32591;48.102;11.772;2023-07-13T08:17:53;4.65;;;2.65;;
46116;SDS011;32591;48.102;11.772;2023-07-13T08:20:20;4.80;;;2.60;;
46116;SDS011;32591;48.102;11.772;2023-07-13T08:22:47;4.00;;;2.55;;
46116;SDS011;32591;48.102;11.772;2023-07-13T08:25:14;4.63;;;2.50;;
46116;SDS011;32591;48.102;11.772;2023-07-13T08:27:41;4.68;;;2.58;;
46116;SDS011;32591;48.102;11.772;2023-07-13T08:30:08;5.95;;;2.88;;
46116;SDS011;32591;48.102;11.772;2023-07-13T08:32:37;3.88;;;2.47;;
46116;SDS011;32591;48.102;11.772;2023-07-13T08:35:05;4.90;;;2.80;;
46116;SDS011;32591;48.102;11.772;2023-07-13T08:37:33;3.90;;;2.47;;
46116;SDS011;32591;48.102;11.772;2023-07-13T08:39:59;4.10;;;2.90;;
46116;SDS011;32591;48.102;11.772;2023-07-13T08:42:31;4.45;;;2.45;;
46116;SDS011;32591;48.102;11.772;2023-07-13T08:45:06;4.72;;;2.42;;
46116;SDS011;32591;48.102;11.772;2023-07-13T08:47:44;5.05;;;2.70;;
46116;SDS011;32591;48.102;11.772;2023-07-13T08:50:17;4.00;;;2.30;;
46116;SDS011;32591;48.102;11.772;2023-07-13T08:52:46;4.65;;;2.60;;
46116;SDS011;32591;48.102;11.772;2023-07-13T08:55:15;4.68;;;2.60;;
46116;SDS011;32591;48.102;11.772;2023-07-13T08:57:46;5.93;;;2.30;;
46116;SDS011;32591;48.102;11.772;2023-07-13T09:00:19;4.57;;;2.65;;
46116;SDS011;32591;48.102;11.772;2023-07-13T09:02:49;3.95;;;2.42;;
46116;SDS011;32591;48.102;11.772;2023-07-13T09:05:27;3.40;;;2.65;;
46116;SDS011;32591;48.102;11.772;2023-07-13T09:08:02;5.53;;;3.08;;
46116;SDS011;32591;48.102;11.772;2023-07-13T09:10:44;6.10;;;2.90;;
46116;SDS011;32591;48.102;11.772;2023-07-13T09:13:18;4.57;;;2.60;;
46116;SDS011;32591;48.102;11.772;2023-07-13T09:15:53;6.45;;;2.75;;
46116;SDS011;32591;48.102;11.772;2023-07-13T09:18:23;4.97;;;2.95;;
46116;SDS011;32591;48.102;11.772;2023-07-13T09:20:56;4.85;;;2.67;;
46116;SDS011;32591;48.102;11.772;2023-07-13T09:23:27;5.38;;;2.70;;
46116;SDS011;32591;48.102;11.772;2023-07-13T09:25:59;5.90;;;2.97;;
46116;SDS011;32591;48.102;11.772;2023-07-13T09:28:33;5.72;;;2.78;;
46116;SDS011;32591;48.102;11.772;2023-07-13T09:31:06;4.35;;;2.80;;
46116;SDS011;32591;48.102;11.772;2023-07-13T09:33:40;7.18;;;2.72;;
46116;SDS011;32591;48.102;11.772;2023-07-13T09:36:17;4.10;;;2.40;;
46116;SDS011;32591;48.102;11.772;2023-07-13T09:38:48;3.42;;;2.30;;
46116;SDS011;32591;48.102;11.772;2023-07-13T09:41:33;5.90;;;2.70;;
46116;SDS011;32591;48.102;11.772;2023-07-13T09:44:10;6.45;;;2.63;;
46116;SDS011;32591;48.102;11.772;2023-07-13T09:46:40;3.42;;;2.50;;
46116;SDS011;32591;48.102;11.772;2023-07-13T09:49:14;5.05;;;2.70;;
46116;SDS011;32591;48.102;11.772;2023-07-13T09:51:41;3.95;;;2.63;;
46116;SDS011;32591;48.102;11.772;2023-07-13T09:54:17;3.88;;;2.75;;
46116;SDS011;32591;48.102;11.772;2023-07-13T09:59:19;4.05;;;2.75;;
46116;SDS011;32591;48.102;11.772;2023-07-13T10:01:46;3.50;;;2.45;;
46116;SDS011;32591;48.102;11.772;2023-07-13T10:04:17;4.28;;;2.63;;
46116;SDS011;32591;48.102;11.772;2023-07-13T10:06:46;8.70;;;2.97;;
46116;SDS011;32591;48.102;11.772;2023-07-13T10:09:15;4.50;;;2.30;;
46116;SDS011;32591;48.102;11.772;2023-07-13T10:11:44;6.80;;;2.75;;
46116;SDS011;32591;48.102;11.772;2023-07-13T10:14:13;4.10;;;2.22;;
46116;SDS011;32591;48.102;11.772;2023-07-13T10:16:42;6.43;;;2.78;;
46116;SDS011;32591;48.102;11.772;2023-07-13T10:19:12;3.55;;;2.20;;
46116;SDS011;32591;48.102;11.772;2023-07-13T10:21:47;3.95;;;2.38;;
46116;SDS011;32591;48.102;11.772;2023-07-13T10:24:21;5.32;;;2.42;;
46116;SDS011;32591;48.102;11.772;2023-07-13T10:26:52;5.75;;;2.88;;
46116;SDS011;32591;48.102;11.772;2023-07-13T10:29:27;6.03;;;2.60;;
46116;SDS011;32591;48.102;11.772;2023-07-13T10:32:03;4.43;;;2.58;;
46116;SDS011;32591;48.102;11.772;2023-07-13T10:34:37;6.90;;;3.72;;
46116;SDS011;32591;48.102;11.772;2023-07-13T10:37:05;4.95;;;2.80;;
46116;SDS011;32591;48.102;11.772;2023-07-13T10:39:34;4.47;;;2.47;;
46116;SDS011;32591;48.102;11.772;2023-07-13T10:42:04;3.63;;;2.58;;
46116;SDS011;32591;48.102;11.772;2023-07-13T10:44:38;3.40;;;2.28;;
46116;SDS011;32591;48.102;11.772;2023-07-13T10:47:06;4.97;;;2.40;;
46116;SDS011;32591;48.102;11.772;2023-07-13T10:49:40;3.80;;;2.13;;
46116;SDS011;32591;48.102;11.772;2023-07-13T10:55:31;3.28;;;1.90;;
46116;SDS011;32591;48.102;11.772;2023-07-13T10:58:01;3.63;;;2.05;;
46116;SDS011;32591;48.102;11.772;2023-07-13T11:00:43;4.38;;;2.10;;
46116;SDS011;32591;48.102;11.772;2023-07-13T11:03:15;6.03;;;2.17;;
46116;SDS011;32591;48.102;11.772;2023-07-13T11:05:49;8.63;;;2.50;;
46116;SDS011;32591;48.102;11.772;2023-07-13T11:08:20;4.82;;;1.75;;
46116;SDS011;32591;48.102;11.772;2023-07-13T11:10:59;3.00;;;1.60;;
46116;SDS011;32591;48.102;11.772;2023-07-13T11:13:36;5.32;;;2.30;;
46116;SDS011;32591;48.102;11.772;2023-07-13T11:22:13;5.90;;;2.03;;
46116;SDS011;32591;48.102;11.772;2023-07-13T11:24:50;5.95;;;2.25;;
46116;SDS011;32591;48.102;11.772;2023-07-13T11:27:37;3.88;;;1.83;;
46116;SDS011;32591;48.102;11.772;2023-07-13T11:33:13;3.72;;;2.00;;
46116;SDS011;32591;48.102;11.772;2023-07-13T11:35:49;7.28;;;2.15;;
46116;SDS011;32591;48.102;11.772;2023-07-13T11:38:30;2.60;;;1.70;;
46116;SDS011;32591;48.102;11.772;2023-07-13T11:41:02;3.28;;;2.20;;
46116;SDS011;32591;48.102;11.772;2023-07-13T11:43:32;5.05;;;1.90;;
46116;SDS011;32591;48.102;11.772;2023-07-13T11:46:13;3.10;;;1.80;;
46116;SDS011;32591;48.102;11.772;2023-07-13T11:48:42;4.32;;;1.88;;
46116;SDS011;32591;48.102;11.772;2023-07-13T11:51:15;3.40;;;1.83;;
46116;SDS011;32591;48.102;11.772;2023-07-13T11:53:50;4.53;;;1.80;;
46116;SDS011;32591;48.102;11.772;2023-07-13T11:56:19;4.30;;;2.10;;
46116;SDS011;32591;48.102;11.772;2023-07-13T11:58:48;4.38;;;1.52;;
46116;SDS011;32591;48.102;11.772;2023-07-13T12:01:19;4.07;;;1.88;;
46116;SDS011;32591;48.102;11.772;2023-07-13T12:03:50;3.88;;;2.10;;
46116;SDS011;32591;48.102;11.772;2023-07-13T12:06:25;4.93;;;1.92;;
46116;SDS011;32591;48.102;11.772;2023-07-13T12:08:59;5.43;;;2.03;;
46116;SDS011;32591;48.102;11.772;2023-07-13T12:11:30;3.17;;;1.77;;
46116;SDS011;32591;48.102;11.772;2023-07-13T12:14:02;5.00;;;1.90;;
46116;SDS011;32591;48.102;11.772;2023-07-13T12:16:29;5.60;;;2.00;;
46116;SDS011;32591;48.102;11.772;2023-07-13T12:18:59;2.63;;;1.60;;
46116;SDS011;32591;48.102;11.772;2023-07-13T12:21:30;2.72;;;1.30;;
46116;SDS011;32591;48.102;11.772;2023-07-13T12:24:04;4.97;;;1.98;;
46116;SDS011;32591;48.102;11.772;2023-07-13T12:26:41;1.80;;;1.40;;
46116;SDS011;32591;48.102;11.772;2023-07-13T12:29:11;3.30;;;1.80;;
46116;SDS011;32591;48.102;11.772;2023-07-13T12:31:44;2.80;;;1.75;;
46116;SDS011;32591;48.102;11.772;2023-07-13T12:34:14;3.05;;;1.42;;
46116;SDS011;32591;48.102;11.772;2023-07-13T12:36:45;3.15;;;1.80;;
46116;SDS011;32591;48.102;11.772;2023-07-13T12:39:17;5.18;;;1.67;;
46116;SDS011;32591;48.102;11.772;2023-07-13T12:41:48;5.75;;;1.90;;
46116;SDS011;32591;48.102;11.772;2023-07-13T12:44:17;6.00;;;1.90;;
46116;SDS011;32591;48.102;11.772;2023-07-13T12:46:56;4.45;;;2.00;;
46116;SDS011;32591;48.102;11.772;2023-07-13T12:49:27;3.90;;;1.83;;
46116;SDS011;32591;48.102;11.772;2023-07-13T12:51:58;3.83;;;1.70;;
46116;SDS011;32591;48.102;11.772;2023-07-13T12:54:29;3.78;;;1.67;;
46116;SDS011;32591;48.102;11.772;2023-07-13T12:56:58;2.95;;;1.77;;
46116;SDS011;32591;48.102;11.772;2023-07-13T12:59:29;7.07;;;2.15;;
46116;SDS011;32591;48.102;11.772;2023-07-13T13:02:02;3.08;;;1.80;;
46116;SDS011;32591;48.102;11.772;2023-07-13T13:04:49;6.10;;;1.90;;
46116;SDS011;32591;48.102;11.772;2023-07-13T13:07:16;3.83;;;1.80;;
46116;SDS011;32591;48.102;11.772;2023-07-13T13:09:46;3.88;;;1.70;;
46116;SDS011;32591;48.102;11.772;2023-07-13T13:12:13;3.40;;;2.13;;
46116;SDS011;32591;48.102;11.772;2023-07-13T13:14:42;3.72;;;1.30;;
46116;SDS011;32591;48.102;11.772;2023-07-13T13:17:14;5.25;;;1.52;;
46116;SDS011;32591;48.102;11.772;2023-07-13T13:19:46;3.80;;;1.42;;
46116;SDS011;32591;48.102;11.772;2023-07-13T13:22:13;3.33;;;1.45;;
46116;SDS011;32591;48.102;11.772;2023-07-13T13:24:40;3.15;;;1.40;;
46116;SDS011;32591;48.102;11.772;2023-07-13T13:27:11;3.60;;;1.73;;
46116;SDS011;32591;48.102;11.772;2023-07-13T13:29:45;4.15;;;1.70;;
46116;SDS011;32591;48.102;11.772;2023-07-13T13:32:13;3.58;;;1.50;;
46116;SDS011;32591;48.102;11.772;2023-07-13T13:34:41;4.10;;;1.65;;
46116;SDS011;32591;48.102;11.772;2023-07-13T13:37:11;5.85;;;1.95;;
46116;SDS011;32591;48.102;11.772;2023-07-13T13:39:45;3.30;;;1.67;;
46116;SDS011;32591;48.102;11.772;2023-07-13T13:42:13;2.83;;;1.58;;
46116;SDS011;32591;48.102;11.772;2023-07-13T13:44:41;6.15;;;1.95;;
46116;SDS011;32591;48.102;11.772;2023-07-13T13:47:14;3.72;;;1.83;;
46116;SDS011;32591;48.102;11.772;2023-07-13T13:49:53;3.35;;;1.75;;
46116;SDS011;32591;48.102;11.772;2023-07-13T13:52:20;4.10;;;1.80;;
46116;SDS011;32591;48.102;11.772;2023-07-13T13:54:47;4.30;;;1.95;;
46116;SDS011;32591;48.102;11.772;2023-07-13T13:57:16;3.63;;;1.67;;
46116;SDS011;32591;48.102;11.772;2023-07-13T13:59:43;4.57;;;1.90;;
46116;SDS011;32591;48.102;11.772;2023-07-13T14:02:19;3.05;;;1.73;;
46116;SDS011;32591;48.102;11.772;2023-07-13T14:04:52;4.25;;;1.98;;
46116;SDS011;32591;48.102;11.772;2023-07-13T14:07:23;4.68;;;2.10;;
46116;SDS011;32591;48.102;11.772;2023-07-13T14:09:51;3.45;;;1.67;;
46116;SDS011;32591;48.102;11.772;2023-07-13T14:12:20;4.13;;;1.80;;
46116;SDS011;32591;48.102;11.772;2023-07-13T14:14:50;3.45;;;1.90;;
46116;SDS011;32591;48.102;11.772;2023-07-13T14:17:20;3.10;;;1.65;;
46116;SDS011;32591;48.102;11.772;2023-07-13T14:19:51;3.45;;;1.70;;
46116;SDS011;32591;48.102;11.772;2023-07-13T14:22:22;5.07;;;1.73;;
46116;SDS011;32591;48.102;11.772;2023-07-13T14:24:51;10.45;;;2.13;;
46116;SDS011;32591;48.102;11.772;2023-07-13T14:27:20;6.13;;;1.90;;
46116;SDS011;32591;48.102;11.772;2023-07-13T14:29:47;6.78;;;1.73;;
46116;SDS011;32591;48.102;11.772;2023-07-13T14:32:16;3.28;;;1.60;;
46116;SDS011;32591;48.102;11.772;2023-07-13T14:34:43;6.55;;;1.73;;
46116;SDS011;32591;48.102;11.772;2023-07-13T14:37:11;4.97;;;1.77;;
46116;SDS011;32591;48.102;11.772;2023-07-13T14:39:42;2.53;;;1.40;;
46116;SDS011;32591;48.102;11.772;2023-07-13T14:42:11;4.78;;;2.13;;
46116;SDS011;32591;48.102;11.772;2023-07-13T14:44:39;3.50;;;1.58;;
46116;SDS011;32591;48.102;11.772;2023-07-13T14:47:06;4.60;;;1.65;;
46116;SDS011;32591;48.102;11.772;2023-07-13T14:49:35;2.40;;;1.73;;
46116;SDS011;32591;48.102;11.772;2023-07-13T14:52:08;6.88;;;2.00;;
46116;SDS011;32591;48.102;11.772;2023-07-13T14:54:38;4.68;;;1.60;;
46116;SDS011;32591;48.102;11.772;2023-07-13T14:57:09;2.30;;;1.35;;
46116;SDS011;32591;48.102;11.772;2023-07-13T14:59:37;4.55;;;1.77;;
46116;SDS011;32591;48.102;11.772;2023-07-13T15:02:15;2.00;;;1.40;;